sensor_id;sensor_type;location;lat;lon;timestamp;P1;durP1;ratioP1;P2;durP2;ratioP2
16854;SDS011;8543;54.522;18.550;2023-08-21T00:00:13;8.60;;;5.90;;
16854;SDS011;8543;54.522;18.550;2023-08-21T00:02:39;8.40;;;6.10;;
16854;SDS011;8543;54.522;18.550;2023-08-21T00:05:05;8.60;;;5.80;;
16854;SDS011;8543;54.522;18.550;2023-08-21T00:07:31;8.00;;;6.00;;
16854;SDS011;8543;54.522;18.550;2023-08-21T00:09:56;8.40;;;6.30;;
16854;SDS011;8543;54.522;18.550;2023-08-21T00:12:22;7.10;;;5.60;;
16854;SDS011;8543;54.522;18.550;2023-08-21T00:14:47;7.20;;;5.90;;
16854;SDS011;8543;54.522;18.550;2023-08-21T00:17:12;7.30;;;5.40;;
16854;SDS011;8543;54.522;18.550;2023-08-21T00:19:38;7.50;;;5.60;;
16854;SDS011;8543;54.522;18.550;2023-08-21T00:22:03;7.30;;;5.50;;
16854;SDS011;8543;54.522;18.550;2023-08-21T00:24:29;7.40;;;5.60;;
16854;SDS011;8543;54.522;18.550;2023-08-21T00:26:54;6.40;;;5.20;;
16854;SDS011;8543;54.522;18.550;2023-08-21T00:29:20;7.10;;;5.60;;
16854;SDS011;8543;54.522;18.550;2023-08-21T00:31:45;7.20;;;5.30;;
16854;SDS011;8543;54.522;18.550;2023-08-21T00:34:11;8.20;;;5.40;;
16854;SDS011;8543;54.522;18.550;2023-08-21T00:36:36;7.20;;;5.20;;
16854;SDS011;8543;54.522;18.550;2023-08-21T00:39:02;7.90;;;5.50;;
16854;SDS011;8543;54.522;18.550;2023-08-21T00:41:27;8.10;;;5.40;;
16854;SDS011;8543;54.522;18.550;2023-08-21T00:43:53;7.20;;;5.50;;
16854;SDS011;8543;54.522;18.550;2023-08-21T00:46:18;7.60;;;6.00;;
16854;SDS011;8543;54.522;18.550;2023-08-21T00:48:44;7.10;;;5.50;;
16854;SDS011;8543;54.522;18.550;2023-08-21T00:51:09;8.20;;;5.50;;
16854;SDS011;8543;54.522;18.550;2023-08-21T00:53:36;7.50;;;4.90;;
16854;SDS011;8543;54.522;18.550;2023-08-21T00:56:02;6.60;;;4.60;;
16854;SDS011;8543;54.522;18.550;2023-08-21T00:58:27;8.30;;;5.10;;
16854;SDS011;8543;54.522;18.550;2023-08-21T01:00:53;7.70;;;5.10;;
16854;SDS011;8543;54.522;18.550;2023-08-21T01:03:19;6.90;;;5.10;;
16854;SDS011;8543;54.522;18.550;2023-08-21T01:05:44;6.40;;;5.20;;
16854;SDS011;8543;54.522;18.550;2023-08-21T01:08:11;7.20;;;5.20;;
16854;SDS011;8543;54.522;18.550;2023-08-21T01:16:03;6.80;;;5.10;;
16854;SDS011;8543;54.522;18.550;2023-08-21T01:18:29;6.40;;;4.70;;
16854;SDS011;8543;54.522;18.550;2023-08-21T01:20:55;6.40;;;4.30;;
16854;SDS011;8543;54.522;18.550;2023-08-21T01:23:54;5.70;;;4.40;;
16854;SDS011;8543;54.522;18.550;2023-08-21T01:26:12;7.50;;;5.10;;
16854;SDS011;8543;54.522;18.550;2023-08-21T01:28:38;6.50;;;4.70;;
16854;SDS011;8543;54.522;18.550;2023-08-21T01:31:17;7.10;;;5.00;;
16854;SDS011;8543;54.522;18.550;2023-08-21T01:33:47;6.70;;;5.20;;
16854;SDS011;8543;54.522;18.550;2023-08-21T01:36:18;7.20;;;5.00;;
16854;SDS011;8543;54.522;18.550;2023-08-21T01:38:45;7.60;;;5.10;;
16854;SDS011;8543;54.522;18.550;2023-08-21T01:41:10;6.50;;;5.00;;
16854;SDS011;8543;54.522;18.550;2023-08-21T01:43:36;7.40;;;4.80;;
16854;SDS011;8543;54.522;18.550;2023-08-21T01:46:01;7.00;;;4.80;;
16854;SDS011;8543;54.522;18.550;2023-08-21T01:48:28;7.30;;;4.90;;
16854;SDS011;8543;54.522;18.550;2023-08-21T01:50:54;6.60;;;4.70;;
16854;SDS011;8543;54.522;18.550;2023-08-21T01:53:19;6.20;;;4.30;;
16854;SDS011;8543;54.522;18.550;2023-08-21T01:55:45;6.40;;;4.30;;
16854;SDS011;8543;54.522;18.550;2023-08-21T01:58:10;6.50;;;4.30;;
16854;SDS011;8543;54.522;18.550;2023-08-21T02:00:36;7.10;;;4.00;;
16854;SDS011;8543;54.522;18.550;2023-08-21T02:03:01;5.80;;;4.10;;
16854;SDS011;8543;54.522;18.550;2023-08-21T02:05:26;7.00;;;4.10;;
16854;SDS011;8543;54.522;18.550;2023-08-21T02:07:52;5.80;;;3.90;;
16854;SDS011;8543;54.522;18.550;2023-08-21T02:10:17;6.00;;;4.00;;
16854;SDS011;8543;54.522;18.550;2023-08-21T02:12:43;6.10;;;4.10;;
16854;SDS011;8543;54.522;18.550;2023-08-21T02:15:08;5.90;;;4.20;;
16854;SDS011;8543;54.522;18.550;2023-08-21T02:17:35;6.30;;;4.40;;
16854;SDS011;8543;54.522;18.550;2023-08-21T02:20:00;6.00;;;4.30;;
16854;SDS011;8543;54.522;18.550;2023-08-21T02:22:26;6.50;;;4.00;;
16854;SDS011;8543;54.522;18.550;2023-08-21T02:24:51;5.50;;;3.50;;
16854;SDS011;8543;54.522;18.550;2023-08-21T02:27:16;5.60;;;3.80;;
16854;SDS011;8543;54.522;18.550;2023-08-21T02:29:42;6.30;;;4.30;;
16854;SDS011;8543;54.522;18.550;2023-08-21T02:32:07;5.80;;;4.20;;
16854;SDS011;8543;54.522;18.550;2023-08-21T02:34:33;5.90;;;4.00;;
16854;SDS011;8543;54.522;18.550;2023-08-21T02:36:58;5.60;;;3.90;;
16854;SDS011;8543;54.522;18.550;2023-08-21T02:39:23;6.30;;;4.10;;
16854;SDS011;8543;54.522;18.550;2023-08-21T02:41:49;5.50;;;3.90;;
16854;SDS011;8543;54.522;18.550;2023-08-21T02:44:14;4.80;;;3.50;;
16854;SDS011;8543;54.522;18.550;2023-08-21T02:46:40;5.30;;;3.80;;
16854;SDS011;8543;54.522;18.550;2023-08-21T02:49:05;6.80;;;4.20;;
16854;SDS011;8543;54.522;18.550;2023-08-21T02:51:30;5.80;;;3.70;;
16854;SDS011;8543;54.522;18.550;2023-08-21T02:53:56;5.40;;;3.80;;
16854;SDS011;8543;54.522;18.550;2023-08-21T02:56:21;6.10;;;3.50;;
16854;SDS011;8543;54.522;18.550;2023-08-21T02:58:47;5.00;;;3.40;;
16854;SDS011;8543;54.522;18.550;2023-08-21T03:01:12;5.40;;;3.40;;
16854;SDS011;8543;54.522;18.550;2023-08-21T03:03:37;6.60;;;3.70;;
16854;SDS011;8543;54.522;18.550;2023-08-21T03:06:03;5.60;;;3.40;;
16854;SDS011;8543;54.522;18.550;2023-08-21T03:08:28;4.30;;;3.10;;
16854;SDS011;8543;54.522;18.550;2023-08-21T03:10:54;5.10;;;3.30;;
16854;SDS011;8543;54.522;18.550;2023-08-21T03:13:19;6.10;;;3.30;;
16854;SDS011;8543;54.522;18.550;2023-08-21T03:15:44;5.90;;;3.60;;
16854;SDS011;8543;54.522;18.550;2023-08-21T03:18:10;4.90;;;3.20;;
16854;SDS011;8543;54.522;18.550;2023-08-21T03:20:35;5.20;;;3.10;;
16854;SDS011;8543;54.522;18.550;2023-08-21T03:23:01;5.80;;;3.20;;
16854;SDS011;8543;54.522;18.550;2023-08-21T03:25:27;4.40;;;2.90;;
16854;SDS011;8543;54.522;18.550;2023-08-21T03:27:52;4.40;;;2.80;;
16854;SDS011;8543;54.522;18.550;2023-08-21T03:30:18;4.80;;;2.80;;
16854;SDS011;8543;54.522;18.550;2023-08-21T03:32:43;4.20;;;2.90;;
16854;SDS011;8543;54.522;18.550;2023-08-21T03:35:09;4.20;;;3.10;;
16854;SDS011;8543;54.522;18.550;2023-08-21T03:37:34;5.20;;;3.40;;
16854;SDS011;8543;54.522;18.550;2023-08-21T03:40:01;4.50;;;2.80;;
16854;SDS011;8543;54.522;18.550;2023-08-21T03:42:27;5.20;;;3.40;;
16854;SDS011;8543;54.522;18.550;2023-08-21T03:44:53;5.10;;;3.40;;
16854;SDS011;8543;54.522;18.550;2023-08-21T03:47:18;6.10;;;3.20;;
16854;SDS011;8543;54.522;18.550;2023-08-21T03:49:43;5.10;;;2.90;;
16854;SDS011;8543;54.522;18.550;2023-08-21T03:52:09;4.50;;;3.10;;
16854;SDS011;8543;54.522;18.550;2023-08-21T03:54:34;4.40;;;2.80;;
16854;SDS011;8543;54.522;18.550;2023-08-21T03:57:00;5.40;;;3.20;;
16854;SDS011;8543;54.522;18.550;2023-08-21T03:59:25;4.80;;;3.00;;
16854;SDS011;8543;54.522;18.550;2023-08-21T04:01:52;4.70;;;3.00;;
16854;SDS011;8543;54.522;18.550;2023-08-21T04:04:18;5.00;;;3.50;;
16854;SDS011;8543;54.522;18.550;2023-08-21T04:06:44;4.70;;;3.40;;
16854;SDS011;8543;54.522;18.550;2023-08-21T04:09:09;4.70;;;3.10;;
16854;SDS011;8543;54.522;18.550;2023-08-21T04:11:35;5.40;;;3.20;;
16854;SDS011;8543;54.522;18.550;2023-08-21T04:14:01;7.10;;;3.30;;
16854;SDS011;8543;54.522;18.550;2023-08-21T04:16:27;5.30;;;3.40;;
16854;SDS011;8543;54.522;18.550;2023-08-21T04:18:53;4.30;;;2.90;;
16854;SDS011;8543;54.522;18.550;2023-08-21T04:21:18;4.20;;;2.80;;
16854;SDS011;8543;54.522;18.550;2023-08-21T04:23:44;4.60;;;3.20;;
16854;SDS011;8543;54.522;18.550;2023-08-21T04:26:11;4.90;;;3.20;;
16854;SDS011;8543;54.522;18.550;2023-08-21T04:28:36;4.60;;;3.00;;
16854;SDS011;8543;54.522;18.550;2023-08-21T04:31:04;5.40;;;3.40;;
16854;SDS011;8543;54.522;18.550;2023-08-21T04:33:30;5.20;;;3.70;;
16854;SDS011;8543;54.522;18.550;2023-08-21T04:35:57;5.50;;;3.40;;
16854;SDS011;8543;54.522;18.550;2023-08-21T04:38:22;5.80;;;3.30;;
16854;SDS011;8543;54.522;18.550;2023-08-21T04:40:48;5.30;;;3.20;;
16854;SDS011;8543;54.522;18.550;2023-08-21T04:43:13;5.40;;;3.30;;
16854;SDS011;8543;54.522;18.550;2023-08-21T04:45:45;5.50;;;3.30;;
16854;SDS011;8543;54.522;18.550;2023-08-21T04:48:15;5.80;;;3.20;;
16854;SDS011;8543;54.522;18.550;2023-08-21T04:50:40;6.50;;;3.50;;
16854;SDS011;8543;54.522;18.550;2023-08-21T04:53:06;6.80;;;3.40;;
16854;SDS011;8543;54.522;18.550;2023-08-21T04:55:31;5.20;;;2.80;;
16854;SDS011;8543;54.522;18.550;2023-08-21T04:57:56;4.40;;;3.00;;
16854;SDS011;8543;54.522;18.550;2023-08-21T05:00:22;6.10;;;2.80;;
16854;SDS011;8543;54.522;18.550;2023-08-21T05:02:47;5.40;;;3.30;;
16854;SDS011;8543;54.522;18.550;2023-08-21T05:05:13;5.30;;;3.30;;
16854;SDS011;8543;54.522;18.550;2023-08-21T05:07:38;4.90;;;3.00;;
16854;SDS011;8543;54.522;18.550;2023-08-21T05:10:04;4.30;;;2.60;;
16854;SDS011;8543;54.522;18.550;2023-08-21T05:12:30;5.10;;;3.00;;
16854;SDS011;8543;54.522;18.550;2023-08-21T05:14:55;6.50;;;3.20;;
16854;SDS011;8543;54.522;18.550;2023-08-21T05:17:20;5.70;;;3.20;;
16854;SDS011;8543;54.522;18.550;2023-08-21T05:19:46;7.30;;;3.10;;
16854;SDS011;8543;54.522;18.550;2023-08-21T05:22:11;5.10;;;3.30;;
16854;SDS011;8543;54.522;18.550;2023-08-21T05:24:37;4.40;;;2.80;;
16854;SDS011;8543;54.522;18.550;2023-08-21T05:27:03;5.20;;;3.40;;
16854;SDS011;8543;54.522;18.550;2023-08-21T05:29:29;5.90;;;3.70;;
16854;SDS011;8543;54.522;18.550;2023-08-21T05:31:55;5.80;;;3.20;;
16854;SDS011;8543;54.522;18.550;2023-08-21T05:34:20;4.60;;;2.90;;
16854;SDS011;8543;54.522;18.550;2023-08-21T05:36:46;6.80;;;3.10;;
16854;SDS011;8543;54.522;18.550;2023-08-21T05:39:11;6.20;;;3.30;;
16854;SDS011;8543;54.522;18.550;2023-08-21T05:41:36;5.40;;;3.10;;
16854;SDS011;8543;54.522;18.550;2023-08-21T05:44:02;6.20;;;3.30;;
16854;SDS011;8543;54.522;18.550;2023-08-21T05:46:27;4.90;;;3.10;;
16854;SDS011;8543;54.522;18.550;2023-08-21T05:48:53;5.90;;;3.10;;
16854;SDS011;8543;54.522;18.550;2023-08-21T05:51:18;7.50;;;3.40;;
16854;SDS011;8543;54.522;18.550;2023-08-21T05:53:44;5.00;;;3.20;;
16854;SDS011;8543;54.522;18.550;2023-08-21T05:56:09;7.30;;;3.20;;
16854;SDS011;8543;54.522;18.550;2023-08-21T05:58:34;5.20;;;3.00;;
16854;SDS011;8543;54.522;18.550;2023-08-21T06:01:00;5.20;;;3.10;;
16854;SDS011;8543;54.522;18.550;2023-08-21T06:03:25;4.70;;;3.20;;
16854;SDS011;8543;54.522;18.550;2023-08-21T06:05:51;6.20;;;3.30;;
16854;SDS011;8543;54.522;18.550;2023-08-21T06:08:16;6.40;;;3.40;;
16854;SDS011;8543;54.522;18.550;2023-08-21T06:10:43;5.50;;;3.30;;
16854;SDS011;8543;54.522;18.550;2023-08-21T06:13:08;6.30;;;3.40;;
16854;SDS011;8543;54.522;18.550;2023-08-21T06:15:34;7.10;;;3.30;;
16854;SDS011;8543;54.522;18.550;2023-08-21T06:17:59;7.40;;;3.30;;
16854;SDS011;8543;54.522;18.550;2023-08-21T06:20:25;7.90;;;3.20;;
16854;SDS011;8543;54.522;18.550;2023-08-21T06:22:51;7.20;;;3.20;;
16854;SDS011;8543;54.522;18.550;2023-08-21T06:25:16;6.60;;;2.90;;
16854;SDS011;8543;54.522;18.550;2023-08-21T06:27:44;5.60;;;3.30;;
16854;SDS011;8543;54.522;18.550;2023-08-21T06:30:09;6.20;;;3.30;;
16854;SDS011;8543;54.522;18.550;2023-08-21T06:32:35;7.00;;;3.50;;
16854;SDS011;8543;54.522;18.550;2023-08-21T06:35:00;5.50;;;3.20;;
16854;SDS011;8543;54.522;18.550;2023-08-21T06:37:26;7.30;;;3.50;;
16854;SDS011;8543;54.522;18.550;2023-08-21T06:39:52;5.70;;;3.20;;
16854;SDS011;8543;54.522;18.550;2023-08-21T06:42:17;4.80;;;3.40;;
16854;SDS011;8543;54.522;18.550;2023-08-21T06:44:43;5.10;;;3.20;;
16854;SDS011;8543;54.522;18.550;2023-08-21T06:47:08;4.60;;;3.30;;
16854;SDS011;8543;54.522;18.550;2023-08-21T06:49:33;5.00;;;3.50;;
16854;SDS011;8543;54.522;18.550;2023-08-21T06:51:59;5.90;;;3.90;;
16854;SDS011;8543;54.522;18.550;2023-08-21T06:54:24;9.90;;;4.10;;
16854;SDS011;8543;54.522;18.550;2023-08-21T06:56:50;5.90;;;4.00;;
16854;SDS011;8543;54.522;18.550;2023-08-21T06:59:15;5.40;;;4.30;;
16854;SDS011;8543;54.522;18.550;2023-08-21T07:01:41;5.40;;;4.00;;
16854;SDS011;8543;54.522;18.550;2023-08-21T07:04:06;5.40;;;4.00;;
16854;SDS011;8543;54.522;18.550;2023-08-21T07:06:32;7.10;;;4.40;;
16854;SDS011;8543;54.522;18.550;2023-08-21T07:08:57;6.30;;;4.50;;
16854;SDS011;8543;54.522;18.550;2023-08-21T07:11:23;6.00;;;4.90;;
16854;SDS011;8543;54.522;18.550;2023-08-21T07:13:48;5.90;;;5.10;;
16854;SDS011;8543;54.522;18.550;2023-08-21T07:16:14;6.10;;;5.00;;
16854;SDS011;8543;54.522;18.550;2023-08-21T07:18:39;5.90;;;4.80;;
16854;SDS011;8543;54.522;18.550;2023-08-21T07:21:05;5.90;;;5.10;;
16854;SDS011;8543;54.522;18.550;2023-08-21T07:23:31;6.20;;;4.90;;
16854;SDS011;8543;54.522;18.550;2023-08-21T07:25:57;4.90;;;4.40;;
16854;SDS011;8543;54.522;18.550;2023-08-21T07:28:23;5.80;;;4.80;;
16854;SDS011;8543;54.522;18.550;2023-08-21T07:30:53;5.30;;;4.80;;
16854;SDS011;8543;54.522;18.550;2023-08-21T07:33:20;6.30;;;4.90;;
16854;SDS011;8543;54.522;18.550;2023-08-21T07:35:45;5.50;;;4.60;;
16854;SDS011;8543;54.522;18.550;2023-08-21T07:38:10;6.00;;;4.80;;
16854;SDS011;8543;54.522;18.550;2023-08-21T07:40:36;5.90;;;4.80;;
16854;SDS011;8543;54.522;18.550;2023-08-21T07:43:01;5.20;;;4.50;;
16854;SDS011;8543;54.522;18.550;2023-08-21T07:45:27;6.90;;;5.00;;
16854;SDS011;8543;54.522;18.550;2023-08-21T07:47:52;5.60;;;5.00;;
16854;SDS011;8543;54.522;18.550;2023-08-21T07:50:18;6.10;;;5.20;;
16854;SDS011;8543;54.522;18.550;2023-08-21T07:52:43;5.80;;;5.20;;
16854;SDS011;8543;54.522;18.550;2023-08-21T07:55:09;6.80;;;4.70;;
16854;SDS011;8543;54.522;18.550;2023-08-21T07:57:34;7.20;;;4.50;;
16854;SDS011;8543;54.522;18.550;2023-08-21T08:00:00;5.00;;;4.60;;
16854;SDS011;8543;54.522;18.550;2023-08-21T08:02:25;5.10;;;4.60;;
16854;SDS011;8543;54.522;18.550;2023-08-21T08:04:51;8.40;;;4.50;;
16854;SDS011;8543;54.522;18.550;2023-08-21T08:07:16;6.00;;;4.40;;
16854;SDS011;8543;54.522;18.550;2023-08-21T08:09:41;6.60;;;3.90;;
16854;SDS011;8543;54.522;18.550;2023-08-21T08:12:07;6.90;;;3.90;;
16854;SDS011;8543;54.522;18.550;2023-08-21T08:14:33;7.20;;;3.40;;
16854;SDS011;8543;54.522;18.550;2023-08-21T08:16:58;5.00;;;3.00;;
16854;SDS011;8543;54.522;18.550;2023-08-21T08:19:23;5.20;;;3.00;;
16854;SDS011;8543;54.522;18.550;2023-08-21T08:21:49;5.20;;;2.80;;
16854;SDS011;8543;54.522;18.550;2023-08-21T08:24:14;6.30;;;2.90;;
16854;SDS011;8543;54.522;18.550;2023-08-21T08:26:40;5.40;;;2.90;;
16854;SDS011;8543;54.522;18.550;2023-08-21T08:29:07;6.90;;;3.00;;
16854;SDS011;8543;54.522;18.550;2023-08-21T08:31:32;7.10;;;3.00;;
16854;SDS011;8543;54.522;18.550;2023-08-21T08:33:58;6.00;;;2.50;;
16854;SDS011;8543;54.522;18.550;2023-08-21T08:36:23;4.70;;;2.30;;
16854;SDS011;8543;54.522;18.550;2023-08-21T08:38:49;4.00;;;2.30;;
16854;SDS011;8543;54.522;18.550;2023-08-21T08:41:33;4.90;;;2.60;;
16854;SDS011;8543;54.522;18.550;2023-08-21T08:44:02;6.10;;;2.30;;
16854;SDS011;8543;54.522;18.550;2023-08-21T08:46:29;5.70;;;2.20;;
16854;SDS011;8543;54.522;18.550;2023-08-21T08:48:55;6.20;;;2.50;;
16854;SDS011;8543;54.522;18.550;2023-08-21T08:51:22;4.90;;;2.40;;
16854;SDS011;8543;54.522;18.550;2023-08-21T08:53:49;5.50;;;2.40;;
16854;SDS011;8543;54.522;18.550;2023-08-21T08:56:15;4.40;;;2.20;;
16854;SDS011;8543;54.522;18.550;2023-08-21T08:58:40;6.10;;;2.40;;
16854;SDS011;8543;54.522;18.550;2023-08-21T09:01:07;6.10;;;2.50;;
16854;SDS011;8543;54.522;18.550;2023-08-21T09:03:35;5.30;;;2.40;;
16854;SDS011;8543;54.522;18.550;2023-08-21T09:06:01;4.10;;;2.20;;
16854;SDS011;8543;54.522;18.550;2023-08-21T09:08:27;6.40;;;2.60;;
16854;SDS011;8543;54.522;18.550;2023-08-21T09:10:52;5.40;;;2.40;;
16854;SDS011;8543;54.522;18.550;2023-08-21T09:13:19;5.30;;;2.60;;
16854;SDS011;8543;54.522;18.550;2023-08-21T09:15:48;7.50;;;2.50;;
16854;SDS011;8543;54.522;18.550;2023-08-21T09:18:18;5.80;;;2.20;;
16854;SDS011;8543;54.522;18.550;2023-08-21T09:20:44;5.80;;;2.50;;
16854;SDS011;8543;54.522;18.550;2023-08-21T09:23:18;9.00;;;2.50;;
16854;SDS011;8543;54.522;18.550;2023-08-21T09:25:45;5.60;;;2.30;;
16854;SDS011;8543;54.522;18.550;2023-08-21T09:28:15;5.90;;;2.20;;
16854;SDS011;8543;54.522;18.550;2023-08-21T09:30:49;5.70;;;2.30;;
16854;SDS011;8543;54.522;18.550;2023-08-21T09:33:16;5.40;;;2.40;;
16854;SDS011;8543;54.522;18.550;2023-08-21T09:35:43;4.30;;;2.00;;
16854;SDS011;8543;54.522;18.550;2023-08-21T09:38:09;5.00;;;2.30;;
16854;SDS011;8543;54.522;18.550;2023-08-21T09:40:42;4.80;;;2.30;;
16854;SDS011;8543;54.522;18.550;2023-08-21T09:43:09;4.70;;;2.20;;
16854;SDS011;8543;54.522;18.550;2023-08-21T09:45:37;3.00;;;1.90;;
16854;SDS011;8543;54.522;18.550;2023-08-21T09:48:03;5.00;;;2.20;;
16854;SDS011;8543;54.522;18.550;2023-08-21T09:50:29;4.80;;;2.30;;
16854;SDS011;8543;54.522;18.550;2023-08-21T09:52:55;4.00;;;2.10;;
16854;SDS011;8543;54.522;18.550;2023-08-21T09:55:21;4.10;;;2.60;;
16854;SDS011;8543;54.522;18.550;2023-08-21T09:57:47;4.70;;;2.40;;
16854;SDS011;8543;54.522;18.550;2023-08-21T10:00:13;5.20;;;2.20;;
16854;SDS011;8543;54.522;18.550;2023-08-21T10:02:49;5.20;;;2.10;;
16854;SDS011;8543;54.522;18.550;2023-08-21T10:05:16;4.50;;;2.40;;
16854;SDS011;8543;54.522;18.550;2023-08-21T10:07:44;6.50;;;2.60;;
16854;SDS011;8543;54.522;18.550;2023-08-21T10:10:12;6.00;;;2.30;;
16854;SDS011;8543;54.522;18.550;2023-08-21T10:12:38;6.10;;;2.40;;
16854;SDS011;8543;54.522;18.550;2023-08-21T10:15:04;4.60;;;2.20;;
16854;SDS011;8543;54.522;18.550;2023-08-21T10:17:31;4.60;;;2.20;;
16854;SDS011;8543;54.522;18.550;2023-08-21T10:20:01;4.00;;;1.90;;
16854;SDS011;8543;54.522;18.550;2023-08-21T10:25:02;5.20;;;2.50;;
16854;SDS011;8543;54.522;18.550;2023-08-21T10:27:30;5.00;;;2.30;;
16854;SDS011;8543;54.522;18.550;2023-08-21T10:29:56;4.70;;;2.20;;
16854;SDS011;8543;54.522;18.550;2023-08-21T10:32:23;3.70;;;2.10;;
16854;SDS011;8543;54.522;18.550;2023-08-21T10:34:51;4.50;;;2.10;;
16854;SDS011;8543;54.522;18.550;2023-08-21T10:37:18;5.50;;;2.50;;
16854;SDS011;8543;54.522;18.550;2023-08-21T10:39:56;4.10;;;1.90;;
16854;SDS011;8543;54.522;18.550;2023-08-21T10:42:40;6.90;;;2.30;;
16854;SDS011;8543;54.522;18.550;2023-08-21T10:45:10;5.60;;;2.30;;
16854;SDS011;8543;54.522;18.550;2023-08-21T10:47:36;6.20;;;2.20;;
16854;SDS011;8543;54.522;18.550;2023-08-21T10:50:11;4.40;;;2.10;;
16854;SDS011;8543;54.522;18.550;2023-08-21T10:52:37;6.80;;;2.30;;
16854;SDS011;8543;54.522;18.550;2023-08-21T10:55:06;5.10;;;2.20;;
16854;SDS011;8543;54.522;18.550;2023-08-21T10:57:34;4.50;;;2.50;;
16854;SDS011;8543;54.522;18.550;2023-08-21T11:02:35;7.10;;;2.40;;
16854;SDS011;8543;54.522;18.550;2023-08-21T11:05:01;4.20;;;2.30;;
16854;SDS011;8543;54.522;18.550;2023-08-21T11:07:28;6.60;;;2.30;;
16854;SDS011;8543;54.522;18.550;2023-08-21T11:09:54;5.60;;;2.40;;
16854;SDS011;8543;54.522;18.550;2023-08-21T11:12:22;9.20;;;2.60;;
16854;SDS011;8543;54.522;18.550;2023-08-21T11:14:48;7.20;;;2.50;;
16854;SDS011;8543;54.522;18.550;2023-08-21T11:17:14;10.80;;;3.20;;
16854;SDS011;8543;54.522;18.550;2023-08-21T11:19:40;6.50;;;2.20;;
16854;SDS011;8543;54.522;18.550;2023-08-21T11:22:06;8.10;;;2.80;;
16854;SDS011;8543;54.522;18.550;2023-08-21T11:27:12;6.60;;;2.20;;
16854;SDS011;8543;54.522;18.550;2023-08-21T11:29:40;6.60;;;2.30;;
16854;SDS011;8543;54.522;18.550;2023-08-21T11:32:10;8.90;;;2.40;;
16854;SDS011;8543;54.522;18.550;2023-08-21T11:34:40;4.90;;;2.00;;
16854;SDS011;8543;54.522;18.550;2023-08-21T11:37:19;7.00;;;2.10;;
16854;SDS011;8543;54.522;18.550;2023-08-21T11:39:52;5.50;;;2.00;;
16854;SDS011;8543;54.522;18.550;2023-08-21T11:42:20;4.90;;;2.00;;
16854;SDS011;8543;54.522;18.550;2023-08-21T11:44:49;5.80;;;2.00;;
16854;SDS011;8543;54.522;18.550;2023-08-21T11:47:17;5.10;;;1.90;;
16854;SDS011;8543;54.522;18.550;2023-08-21T11:49:43;6.20;;;2.00;;
16854;SDS011;8543;54.522;18.550;2023-08-21T11:52:12;5.40;;;1.70;;
16854;SDS011;8543;54.522;18.550;2023-08-21T11:54:39;3.80;;;1.90;;
16854;SDS011;8543;54.522;18.550;2023-08-21T11:57:11;6.50;;;2.20;;
16854;SDS011;8543;54.522;18.550;2023-08-21T11:59:37;6.40;;;1.80;;
16854;SDS011;8543;54.522;18.550;2023-08-21T12:04:52;5.40;;;1.90;;
16854;SDS011;8543;54.522;18.550;2023-08-21T12:07:19;8.50;;;2.10;;
16854;SDS011;8543;54.522;18.550;2023-08-21T12:09:47;8.30;;;2.10;;
16854;SDS011;8543;54.522;18.550;2023-08-21T12:12:14;9.20;;;2.10;;
16854;SDS011;8543;54.522;18.550;2023-08-21T12:14:39;8.40;;;2.20;;
16854;SDS011;8543;54.522;18.550;2023-08-21T12:17:05;6.80;;;2.20;;
16854;SDS011;8543;54.522;18.550;2023-08-21T12:19:30;6.80;;;2.00;;
16854;SDS011;8543;54.522;18.550;2023-08-21T12:21:56;5.80;;;1.90;;
16854;SDS011;8543;54.522;18.550;2023-08-21T12:24:23;5.90;;;2.00;;
16854;SDS011;8543;54.522;18.550;2023-08-21T12:26:48;5.30;;;2.00;;
16854;SDS011;8543;54.522;18.550;2023-08-21T12:29:14;5.10;;;2.00;;
16854;SDS011;8543;54.522;18.550;2023-08-21T12:31:39;5.70;;;2.10;;
16854;SDS011;8543;54.522;18.550;2023-08-21T12:34:05;8.90;;;2.20;;
16854;SDS011;8543;54.522;18.550;2023-08-21T12:36:30;7.80;;;2.10;;
16854;SDS011;8543;54.522;18.550;2023-08-21T12:38:56;5.10;;;2.10;;
16854;SDS011;8543;54.522;18.550;2023-08-21T12:41:21;6.70;;;1.80;;
16854;SDS011;8543;54.522;18.550;2023-08-21T12:43:46;4.80;;;1.80;;
16854;SDS011;8543;54.522;18.550;2023-08-21T12:46:12;5.70;;;2.00;;
16854;SDS011;8543;54.522;18.550;2023-08-21T12:48:38;4.30;;;1.80;;
16854;SDS011;8543;54.522;18.550;2023-08-21T12:51:04;4.30;;;1.70;;
16854;SDS011;8543;54.522;18.550;2023-08-21T12:53:30;5.60;;;1.70;;
16854;SDS011;8543;54.522;18.550;2023-08-21T12:55:55;3.50;;;1.60;;
16854;SDS011;8543;54.522;18.550;2023-08-21T12:58:21;6.70;;;2.00;;
16854;SDS011;8543;54.522;18.550;2023-08-21T13:00:46;4.00;;;1.80;;
16854;SDS011;8543;54.522;18.550;2023-08-21T13:03:12;3.70;;;1.80;;
16854;SDS011;8543;54.522;18.550;2023-08-21T13:05:37;4.80;;;1.90;;
16854;SDS011;8543;54.522;18.550;2023-08-21T13:08:03;3.60;;;1.50;;
16854;SDS011;8543;54.522;18.550;2023-08-21T13:10:28;5.00;;;1.80;;
16854;SDS011;8543;54.522;18.550;2023-08-21T13:12:54;3.60;;;1.50;;
16854;SDS011;8543;54.522;18.550;2023-08-21T13:15:19;4.40;;;1.70;;
16854;SDS011;8543;54.522;18.550;2023-08-21T13:17:44;4.30;;;1.80;;
16854;SDS011;8543;54.522;18.550;2023-08-21T13:20:10;4.30;;;1.60;;
16854;SDS011;8543;54.522;18.550;2023-08-21T13:22:46;3.60;;;1.60;;
16854;SDS011;8543;54.522;18.550;2023-08-21T13:25:13;3.60;;;1.80;;
16854;SDS011;8543;54.522;18.550;2023-08-21T13:27:39;6.00;;;1.50;;
16854;SDS011;8543;54.522;18.550;2023-08-21T13:30:05;5.70;;;1.80;;
16854;SDS011;8543;54.522;18.550;2023-08-21T13:32:31;6.60;;;1.80;;
16854;SDS011;8543;54.522;18.550;2023-08-21T13:34:56;4.40;;;1.60;;
16854;SDS011;8543;54.522;18.550;2023-08-21T13:37:22;2.80;;;1.50;;
16854;SDS011;8543;54.522;18.550;2023-08-21T13:39:48;4.00;;;1.80;;
16854;SDS011;8543;54.522;18.550;2023-08-21T13:42:14;6.00;;;2.00;;
16854;SDS011;8543;54.522;18.550;2023-08-21T13:44:39;4.80;;;1.70;;
16854;SDS011;8543;54.522;18.550;2023-08-21T13:47:04;5.70;;;2.10;;
16854;SDS011;8543;54.522;18.550;2023-08-21T13:49:30;7.40;;;2.10;;
16854;SDS011;8543;54.522;18.550;2023-08-21T13:51:55;8.20;;;2.20;;
16854;SDS011;8543;54.522;18.550;2023-08-21T13:54:21;8.50;;;2.20;;
16854;SDS011;8543;54.522;18.550;2023-08-21T13:56:46;6.40;;;2.10;;
16854;SDS011;8543;54.522;18.550;2023-08-21T13:59:11;5.00;;;2.00;;
16854;SDS011;8543;54.522;18.550;2023-08-21T14:01:37;3.80;;;1.80;;
16854;SDS011;8543;54.522;18.550;2023-08-21T14:04:03;6.50;;;1.90;;
16854;SDS011;8543;54.522;18.550;2023-08-21T14:06:28;5.90;;;2.00;;
16854;SDS011;8543;54.522;18.550;2023-08-21T14:08:54;5.60;;;1.90;;
16854;SDS011;8543;54.522;18.550;2023-08-21T14:11:20;4.70;;;1.90;;
16854;SDS011;8543;54.522;18.550;2023-08-21T14:13:45;5.50;;;1.80;;
16854;SDS011;8543;54.522;18.550;2023-08-21T14:16:11;8.20;;;2.00;;
16854;SDS011;8543;54.522;18.550;2023-08-21T14:18:36;4.40;;;1.90;;
16854;SDS011;8543;54.522;18.550;2023-08-21T14:21:02;6.00;;;2.30;;
16854;SDS011;8543;54.522;18.550;2023-08-21T14:23:27;9.40;;;2.40;;
16854;SDS011;8543;54.522;18.550;2023-08-21T14:25:53;7.10;;;2.10;;
16854;SDS011;8543;54.522;18.550;2023-08-21T14:28:18;6.30;;;2.00;;
16854;SDS011;8543;54.522;18.550;2023-08-21T14:30:44;5.80;;;2.10;;
16854;SDS011;8543;54.522;18.550;2023-08-21T14:33:10;6.80;;;2.10;;
16854;SDS011;8543;54.522;18.550;2023-08-21T14:35:36;5.30;;;1.90;;
16854;SDS011;8543;54.522;18.550;2023-08-21T14:38:02;5.90;;;2.00;;
16854;SDS011;8543;54.522;18.550;2023-08-21T14:40:27;5.70;;;2.00;;
16854;SDS011;8543;54.522;18.550;2023-08-21T14:42:53;4.80;;;2.10;;
16854;SDS011;8543;54.522;18.550;2023-08-21T14:45:18;7.00;;;1.80;;
16854;SDS011;8543;54.522;18.550;2023-08-21T14:47:44;6.40;;;2.00;;
16854;SDS011;8543;54.522;18.550;2023-08-21T14:50:09;8.10;;;2.10;;
16854;SDS011;8543;54.522;18.550;2023-08-21T14:52:35;5.20;;;2.00;;
16854;SDS011;8543;54.522;18.550;2023-08-21T14:55:01;6.20;;;2.00;;
16854;SDS011;8543;54.522;18.550;2023-08-21T14:57:26;5.80;;;1.80;;